Date,TemperatureHighF,TemperatureAvgF,TemperatureLowF,DewpointHighF,DewpointAvgF,DewpointLowF,HumidityHigh,HumidityAvg,HumidityLow,PressureMaxIn,PressureMinIn,WindSpeedMaxMPH,WindSpeedAvgMPH,GustSpeedMaxMPH,PrecipitationSumIn
2013-1-1,50.6,50.6,50.6,29.0,29.0,29.0,43,43,43,30.11,29.92,3,3,3,0.00
2013-1-2,50.6,49.0,45.8,42.8,35.1,24.6,89,61,43,30.17,29.88,5,2,5,0.00
2013-1-3,47.5,47.5,47.5,41.3,41.3,41.3,79,79,79,30.25,30.11,0,0,0,0.00
2013-1-4,50.6,44.1,28.7,41.3,31.9,21.7,94,64,42,30.36,30.23,9,0,9,0.00
2013-1-5,48.7,38.6,26.4,32.0,26.6,22.2,86,63,43,30.42,30.24,6,0,6,0.00
2013-1-6,53.2,44.8,39.9,41.8,36.8,31.2,87,74,63,30.25,30.05,10,0,10,0.01
2013-1-7,49.9,39.6,30.3,33.4,30.4,26.2,90,71,51,30.45,30.21,8,0,8,0.00
2013-1-8,51.9,40.7,28.4,41.9,34.9,25.9,92,81,63,30.49,30.38,2,0,2,0.00
2013-1-9,64.6,51.0,37.5,53.7,45.9,35.8,95,83,66,30.46,30.38,9,0,9,0.00
2013-1-10,66.8,56.1,48.8,52.2,47.9,41.2,98,76,55,30.50,30.36,0,0,0,0.00
2013-1-11,53.3,47.4,45.4,49.4,46.7,44.9,99,97,78,30.37,30.17,3,0,3,0.07
2013-1-12,70.6,57.9,46.7,65.0,56.1,46.4,100,94,81,30.17,30.08,6,0,6,0.01
2013-1-13,72.1,63.6,57.8,63.9,60.3,57.2,99,89,75,30.12,30.03,13,1,13,0.00
2013-1-14,64.4,62.6,60.1,63.5,61.4,59.2,99,96,89,30.10,30.04,8,0,8,0.12
2013-1-15,61.4,47.2,41.0,61.1,46.7,40.5,99,98,97,30.18,30.05,12,0,12,0.18
2013-1-16,49.5,44.4,40.7,49.2,44.1,40.4,100,99,99,30.08,29.98,6,0,6,0.22
2013-1-17,50.0,44.5,33.3,49.9,44.0,32.4,100,98,96,30.20,29.81,16,1,16,2.45
2013-1-18,48.3,37.3,30.6,33.3,28.9,25.5,98,74,44,30.53,30.17,7,0,7,0.01
2013-1-19,55.5,39.4,24.6,31.9,28.1,22.4,94,67,37,30.52,30.18,9,0,9,0.00
2013-1-20,62.5,47.3,37.0,38.2,32.0,28.5,73,56,38,30.18,30.02,10,0,10,0.00
2013-1-21,59.2,44.2,29.0,36.4,29.6,20.8,93,60,37,30.09,29.91,12,0,12,0.00
2013-1-22,41.2,34.8,27.1,21.7,12.0,3.9,51,39,23,30.28,30.01,11,1,11,0.00
2013-1-23,44.5,32.5,19.8,28.2,17.2,4.2,82,54,36,30.39,30.08,11,0,11,0.00
2013-1-24,45.4,35.2,24.6,32.5,19.5,6.9,84,54,35,30.53,29.99,19,1,19,0.00
2013-1-25,26.2,23.7,19.2,24.2,16.3,8.0,93,74,49,30.54,30.16,5,0,5,0.01
2013-1-26,45.2,32.7,25.4,35.3,29.3,23.7,97,88,63,30.40,30.14,6,0,6,0.00
2013-1-27,42.4,34.8,25.8,30.6,27.1,21.6,94,74,60,30.61,30.40,5,0,5,0.00
2013-1-28,49.5,41.9,34.0,46.8,37.2,29.3,94,83,68,30.50,30.26,10,0,10,0.01
2013-1-29,72.3,57.3,45.4,60.3,52.7,44.3,97,86,65,30.26,30.02,11,1,11,0.00
2013-1-30,74.1,65.6,51.8,64.1,61.2,48.7,97,86,68,30.02,29.38,21,3,21,0.37
2013-1-31,51.8,43.3,35.9,48.7,29.8,21.6,89,60,37,30.03,29.49,23,2,23,0.00
2013-2-1,40.5,35.2,23.9,29.2,16.1,8.5,66,46,30,30.40,29.92,20,2,20,0.00
2013-2-2,44.3,33.7,21.1,34.9,18.4,11.6,81,55,33,30.42,30.06,19,1,19,0.00
2013-2-3,52.2,41.9,35.0,35.3,29.8,25.2,92,64,44,30.06,29.87,15,1,15,0.00
2013-2-4,50.1,39.0,27.9,29.1,25.7,21.3,83,60,41,30.16,30.01,9,0,9,0.00
2013-2-5,64.3,47.9,37.8,43.1,34.6,28.5,80,61,44,30.02,29.89,14,1,14,0.00
2013-2-6,63.5,48.6,34.5,42.5,32.5,25.6,96,59,28,30.24,29.98,9,0,9,0.00
2013-2-7,44.4,39.7,37.4,39.7,33.3,25.9,97,79,48,30.30,30.01,8,0,8,0.04
2013-2-8,59.0,45.5,36.8,49.0,38.4,28.9,97,78,52,30.11,29.87,14,1,14,0.00
2013-2-9,57.3,42.9,31.8,29.4,25.1,19.4,80,53,26,30.35,30.10,8,0,8,0.00
2013-2-10,54.6,43.4,31.6,46.9,29.0,23.1,97,60,32,30.47,30.17,8,0,8,0.08
2013-2-11,57.2,52.4,44.5,57.1,51.7,44.0,100,98,95,30.17,29.95,22,1,22,0.09
2013-2-12,59.7,51.1,42.1,50.8,38.8,29.3,98,66,33,30.10,29.89,8,0,8,0.01
2013-2-13,46.9,44.6,41.4,45.8,42.4,34.4,98,92,76,29.94,29.65,8,0,11,0.01
2013-2-14,50.7,40.5,29.6,36.5,33.3,28.2,96,77,54,30.08,29.87,11,0,11,0.00
2013-2-15,61.7,46.4,30.1,40.8,34.8,28.8,96,68,36,30.11,29.93,11,1,11,0.00
2013-2-16,45.2,35.4,27.5,36.4,29.8,20.9,95,80,68,30.01,29.83,16,0,16,0.01
2013-2-17,40.7,31.6,24.5,21.6,14.9,11.0,77,51,33,30.28,30.01,19,1,19,0.00
2013-2-18,53.5,37.8,20.6,30.0,23.4,13.2,86,58,38,30.41,30.23,13,0,13,0.00
2013-2-19,46.0,40.7,35.5,43.2,35.1,23.9,97,81,54,30.24,29.89,15,1,15,0.00
2013-2-20,54.0,42.3,29.4,24.0,18.8,13.1,68,40,24,30.13,30.02,10,0,10,0.00
2013-2-21,57.7,41.9,26.2,35.9,21.5,13.6,80,46,25,30.30,30.10,9,0,9,0.00
2013-2-22,41.9,36.6,35.2,37.1,35.4,33.5,100,95,75,30.34,30.13,5,0,5,0.02
2013-2-23,42.6,38.5,34.7,42.1,37.9,34.2,98,98,96,30.16,29.85,6,0,6,0.01
2013-2-24,64.3,50.2,41.1,45.3,37.4,27.3,99,67,32,30.03,29.85,11,0,11,0.00
2013-2-25,41.9,39.0,36.8,29.0,27.1,24.8,68,62,56,30.19,30.01,6,1,6,0.00
2013-2-26,41.7,36.7,31.9,41.2,34.6,25.6,98,93,62,30.11,29.61,7,1,8,0.86
2013-2-27,56.9,46.4,36.2,41.7,38.9,35.4,99,77,54,29.82,29.67,14,1,14,0.00
2013-2-28,49.6,42.2,35.1,37.0,30.5,26.8,83,64,45,29.90,29.72,15,1,15,0.00
2013-3-1,46.8,39.1,29.5,32.0,29.5,25.9,87,69,55,29.95,29.88,11,0,11,0.00
2013-3-2,46.1,37.8,29.6,34.8,30.2,22.2,87,74,58,29.96,29.84,11,0,11,0.00
2013-3-3,45.9,34.4,26.2,25.5,20.4,16.1,74,57,40,30.03,29.90,13,1,13,0.00
2013-3-4,53.7,39.2,24.6,25.6,20.3,15.9,72,49,28,30.17,30.02,11,1,11,0.00
2013-3-5,48.6,44.8,39.2,44.8,36.3,24.4,97,74,43,30.08,29.60,9,0,9,0.38
2013-3-6,47.6,40.0,33.5,41.6,28.8,23.2,97,65,46,30.13,29.60,21,2,21,0.01
2013-3-7,54.1,40.3,29.5,34.3,28.5,24.9,86,64,43,30.29,30.13,11,1,11,0.00
2013-3-8,56.4,42.2,28.5,30.9,26.2,22.4,79,55,33,30.35,30.22,16,1,16,0.00
2013-3-9,63.2,47.1,32.9,38.0,31.2,25.1,73,55,37,30.37,30.24,5,0,5,0.00
2013-3-10,66.7,52.0,37.5,41.9,37.4,33.5,86,60,37,30.30,30.17,9,0,9,0.00
2013-3-11,69.0,55.1,41.9,54.9,42.5,27.7,94,63,49,30.20,29.85,11,1,11,0.08
2013-3-12,68.0,58.7,46.3,59.2,49.7,31.6,99,76,36,29.97,29.73,12,1,12,0.47
2013-3-13,56.6,44.8,33.0,35.1,28.6,18.4,91,56,31,30.17,29.97,24,2,24,0.00
2013-3-14,52.4,40.2,29.0,25.0,20.3,16.8,63,46,30,30.30,30.16,13,0,13,0.00
2013-3-15,64.7,47.7,29.5,41.9,31.0,21.1,81,54,39,30.22,29.90,16,1,16,0.00
2013-3-16,77.8,65.2,56.7,52.0,46.7,41.7,65,52,39,29.90,29.68,20,3,20,0.00
2013-3-17,71.9,57.0,44.6,56.0,46.4,39.5,83,68,48,30.10,29.83,8,2,8,0.00
2013-3-18,44.5,40.4,38.1,41.2,38.9,37.1,98,94,83,30.14,29.86,12,0,15,0.39
2013-3-19,66.2,50.5,38.3,45.9,33.9,19.7,99,62,24,30.05,29.85,17,1,17,0.00
2013-3-20,57.1,48.4,42.1,28.0,19.7,12.4,47,32,25,30.12,29.78,12,1,12,0.00
2013-3-21,46.4,38.6,30.6,28.3,16.5,9.6,58,41,30,30.00,29.78,21,1,21,0.00
2013-3-22,51.4,37.7,22.8,25.7,18.6,12.8,72,47,31,30.12,29.99,9,0,9,0.00
2013-3-23,53.4,44.4,37.7,42.5,35.4,25.7,89,72,47,30.07,29.91,4,0,5,0.01
2013-3-24,42.9,39.4,36.5,40.6,38.1,35.7,97,95,89,29.94,29.55,9,1,9,0.61
2013-3-25,47.4,40.2,35.3,38.9,30.4,23.1,98,71,41,29.90,29.57,20,2,20,0.03
2013-3-26,46.7,39.0,29.9,28.9,26.2,23.3,77,60,48,30.19,29.89,11,1,11,0.00
2013-3-27,51.7,40.7,28.9,29.8,25.5,23.0,84,56,37,30.28,30.18,14,1,14,0.00
2013-3-28,56.1,42.6,29.5,29.5,24.4,20.7,74,50,31,30.32,30.20,12,1,12,0.00
2013-3-29,62.6,47.1,29.4,38.3,29.6,23.6,86,54,30,30.36,30.18,10,0,10,0.00
2013-3-30,64.7,53.8,44.3,46.5,43.3,37.6,97,70,50,30.23,30.05,8,0,8,0.03
2013-3-31,69.8,56.9,49.1,58.0,52.2,45.4,99,85,61,30.05,29.78,17,1,17,0.06
2013-4-1,73.0,60.4,52.4,55.0,47.9,38.7,99,68,35,29.94,29.82,14,0,14,0.01
2013-4-2,63.2,52.4,39.3,39.0,33.7,24.5,80,51,27,30.15,29.94,11,0,11,0.00
2013-4-3,60.4,51.2,41.3,31.6,25.9,20.3,48,37,27,30.28,30.12,11,0,11,0.00
2013-4-4,49.9,40.8,35.1,37.4,31.3,21.2,97,73,38,30.29,29.98,12,1,12,0.01
2013-4-5,65.3,49.4,35.3,48.3,40.7,34.5,98,75,44,30.05,29.92,10,0,10,0.00
2013-4-6,67.5,55.0,40.9,41.6,39.1,36.1,86,57,35,30.23,30.05,5,0,5,0.00
2013-4-7,71.5,57.4,41.8,51.5,44.9,34.5,89,64,43,30.26,30.09,15,1,15,0.00
2013-4-8,78.5,66.1,55.1,60.0,54.7,49.7,92,69,47,30.15,30.03,18,1,18,0.00
2013-4-9,84.1,70.6,55.3,63.4,57.8,52.3,92,66,47,30.17,30.05,11,0,11,0.00
2013-4-10,85.5,73.6,61.6,65.1,60.9,58.0,90,66,47,30.08,29.92,12,1,12,0.00
2013-4-11,81.0,70.4,61.2,67.3,62.8,57.9,95,78,57,29.95,29.72,11,1,11,0.03
2013-4-12,82.2,71.2,61.0,66.9,58.9,40.7,99,70,32,29.79,29.59,18,2,18,0.45
2013-4-13,76.1,57.8,45.0,48.6,42.5,39.3,87,60,30,30.01,29.79,6,0,10,0.00
2013-4-14,77.0,61.9,45.2,55.3,46.5,38.2,91,60,34,30.08,29.98,8,0,8,0.01
2013-4-15,69.0,60.7,55.7,63.0,58.2,53.8,99,91,81,30.19,29.96,7,0,7,0.17
2013-4-16,79.0,66.1,56.9,65.1,60.1,55.9,98,82,59,30.28,30.16,6,0,6,0.00
2013-4-17,83.0,69.3,57.5,67.3,61.2,56.0,96,77,53,30.23,30.07,9,0,9,0.00
2013-4-18,80.8,69.9,62.7,64.3,62.2,59.9,93,78,55,30.14,29.97,9,0,9,0.00
2013-4-19,78.7,67.2,55.3,69.3,63.3,52.5,97,88,67,29.97,29.70,14,1,14,0.49
2013-4-20,64.5,53.5,42.7,52.7,38.3,31.0,93,59,35,30.26,29.87,12,0,12,0.01
2013-4-21,62.6,51.8,42.3,45.0,39.3,33.9,84,63,49,30.45,30.26,6,0,6,0.00
2013-4-22,63.6,51.2,40.1,41.3,36.7,32.5,86,60,34,30.44,30.23,11,0,11,0.00
2013-4-23,69.8,56.6,47.6,55.7,47.8,38.4,92,73,59,30.27,30.10,7,0,7,0.00
2013-4-24,74.5,62.0,50.9,61.5,55.5,49.8,97,81,60,30.13,29.98,12,0,12,0.00
2013-4-25,70.7,59.6,49.2,58.6,45.3,37.0,92,62,33,30.27,30.01,10,0,10,0.00
2013-4-26,72.2,58.7,46.3,50.3,39.7,32.5,75,51,32,30.43,30.27,6,0,6,0.00
2013-4-27,63.7,57.4,53.9,57.4,51.9,48.4,98,82,67,30.35,30.24,5,0,5,0.04
2013-4-28,56.4,54.8,54.0,56.0,54.4,53.5,100,99,97,30.25,30.04,5,0,5,2.28
2013-4-29,72.2,60.9,54.9,65.7,59.1,54.9,100,94,72,30.05,29.93,3,0,3,0.37
2013-4-30,71.3,61.8,56.9,63.3,59.5,54.8,100,92,74,30.16,29.97,4,0,4,0.00
2013-5-1,63.7,58.2,52.9,58.3,56.0,52.2,98,93,82,30.28,30.15,10,0,10,0.00
2013-5-2,62.1,57.7,54.6,58.4,56.1,54.0,99,95,86,30.31,30.22,4,0,5,0.10
2013-5-3,65.3,59.2,52.5,56.5,53.4,47.1,95,82,67,30.23,30.11,5,0,5,0.00
2013-5-4,62.1,54.7,48.5,53.3,48.6,44.1,91,80,69,30.13,30.00,8,0,8,0.00
2013-5-5,57.7,53.0,49.9,57.4,51.0,47.6,100,93,85,30.04,29.86,8,1,8,0.52
2013-5-6,71.7,61.6,54.5,63.0,56.4,48.6,100,85,54,29.88,29.80,11,0,11,1.12
2013-5-7,72.5,57.9,47.9,55.3,50.9,46.8,98,80,48,29.94,29.84,11,0,11,0.20
2013-5-8,76.0,62.6,50.1,61.4,56.5,49.8,100,83,56,30.00,29.90,8,0,8,0.00
2013-5-9,83.0,67.1,52.3,62.8,57.6,51.8,100,75,45,30.07,29.98,6,0,6,0.00
2013-5-10,84.1,70.2,55.6,67.2,61.3,54.8,98,76,51,30.05,29.92,11,0,11,0.00
2013-5-11,81.0,70.3,61.6,69.5,63.4,59.8,98,80,58,29.94,29.76,12,0,12,0.16
2013-5-12,75.2,64.4,56.2,61.5,50.8,37.9,98,65,40,30.03,29.81,11,0,11,0.01
2013-5-13,69.5,56.9,43.3,43.3,38.0,33.7,81,52,28,30.17,30.03,11,0,11,0.00
2013-5-14,58.9,46.8,40.7,42.4,39.1,36.9,88,75,52,30.25,30.17,2,0,2,0.00
2013-5-15,88.6,72.9,56.5,68.2,59.3,48.2,85,64,47,30.06,29.90,1,0,9,0.00
2013-5-16,83.3,73.8,63.6,66.0,62.0,58.3,84,68,47,29.99,29.90,1,0,7,0.00
2013-5-17,85.5,74.1,62.1,68.9,64.9,61.0,97,74,53,30.06,29.97,0,0,7,0.00
2013-5-18,72.3,67.6,62.8,66.9,64.9,61.3,97,91,77,30.11,30.03,0,0,9,0.00
2013-5-19,78.2,68.3,64.4,71.7,66.9,63.6,100,96,77,30.10,30.01,4,0,4,0.73
2013-5-20,82.5,71.4,66.1,72.8,68.5,66.1,100,91,66,30.10,29.98,5,0,5,0.04
2013-5-21,84.6,71.5,64.5,75.4,68.0,64.5,100,90,70,30.03,29.92,5,0,5,0.01
2013-5-22,85.1,73.2,64.7,73.1,67.9,63.7,100,85,63,29.99,29.85,8,0,8,0.03
2013-5-23,79.7,68.9,63.6,71.8,66.3,63.3,100,92,71,29.95,29.80,7,0,7,0.55
2013-5-24,73.2,65.1,56.2,64.0,51.6,38.1,99,66,33,30.19,29.84,22,1,22,0.00
2013-5-25,77.8,65.1,44.6,51.9,45.7,38.5,90,52,32,30.30,30.13,11,0,11,0.00
2013-5-26,76.0,63.1,53.2,57.5,49.9,42.4,91,63,41,30.28,30.15,6,0,6,0.00
2013-5-27,83.4,67.7,51.9,64.5,57.8,51.1,97,73,49,30.26,30.12,6,0,6,0.00
2013-5-28,84.8,73.3,62.9,69.5,64.4,59.5,95,75,52,30.21,30.11,8,0,8,0.00
2013-5-29,85.7,73.9,62.3,68.6,64.3,60.1,94,73,52,30.22,30.12,8,0,8,0.00
2013-5-30,85.0,73.1,61.4,70.1,64.4,60.3,98,76,50,30.26,30.13,5,0,5,0.00
2013-5-31,87.0,75.3,64.8,71.1,67.7,63.5,99,79,55,30.21,30.07,7,0,7,0.00
2013-6-1,86.8,76.9,67.3,71.1,68.4,66.0,97,76,56,30.10,29.98,9,0,9,0.00
2013-6-2,82.2,73.7,68.1,71.8,68.5,66.1,100,84,68,30.02,29.87,6,0,6,0.14
2013-6-3,84.2,72.8,67.3,73.9,69.3,66.2,100,90,66,29.94,29.81,5,0,5,0.26
2013-6-4,82.2,72.6,65.4,71.4,67.7,65.1,100,85,69,30.05,29.91,4,0,7,0.10
2013-6-5,76.9,70.4,66.5,71.0,67.6,65.1,100,91,80,30.08,29.96,4,0,4,0.25
2013-6-6,75.9,70.4,67.1,74.7,70.2,67.1,100,100,92,29.97,29.78,5,0,5,1.42
2013-6-7,82.9,70.5,66.3,76.0,69.1,65.4,100,95,73,29.82,29.61,17,0,17,0.70
2013-6-8,86.0,73.1,63.5,73.6,68.9,63.5,100,88,61,30.06,29.80,6,0,6,0.05
2013-6-9,89.0,74.2,65.6,74.9,70.2,65.3,100,89,60,30.12,30.01,5,0,5,0.24
2013-6-10,84.0,73.2,68.6,75.7,70.8,66.7,100,93,72,30.06,29.86,9,0,9,0.17
2013-6-11,92.0,77.7,67.4,71.3,68.2,66.3,99,76,47,29.97,29.89,12,0,12,0.01
2013-6-12,96.7,79.9,64.6,79.3,71.8,63.4,100,78,55,29.97,29.84,8,0,8,0.00
2013-6-13,97.7,79.2,67.3,77.8,72.6,64.4,99,83,50,29.85,29.58,17,0,17,0.81
2013-6-14,86.3,73.1,61.2,67.0,61.5,57.9,99,70,43,30.01,29.73,11,0,11,0.00
2013-6-15,88.5,72.9,57.5,69.4,62.5,55.9,98,72,49,30.12,30.00,10,0,10,0.00
2013-6-16,90.1,77.0,66.0,73.6,67.2,61.0,88,73,53,30.11,29.98,10,0,10,0.00
2013-6-17,91.8,75.7,70.4,75.9,70.4,67.3,99,85,58,30.01,29.90,19,0,19,1.03
2013-6-18,85.9,73.8,69.9,75.8,71.5,69.3,100,93,70,29.94,29.75,11,0,11,0.14
2013-6-19,86.0,74.5,66.3,71.1,68.4,66.0,99,83,56,30.08,29.87,3,0,3,0.00
2013-6-20,84.6,73.5,64.3,71.1,67.1,63.4,99,82,61,30.20,30.08,0,0,0,0.00
2013-6-21,85.2,72.6,61.1,70.0,64.7,60.0,97,78,57,30.24,30.15,7,0,7,0.00
2013-6-22,90.0,74.1,61.8,73.5,66.7,59.2,94,79,53,30.21,30.09,6,0,6,0.00
2013-6-23,89.0,76.4,67.6,77.7,71.4,66.7,100,85,62,30.18,30.09,4,0,4,0.25
2013-6-24,92.2,77.8,69.4,78.5,72.2,68.0,99,84,62,30.18,30.06,7,0,7,0.00
2013-6-25,93.7,80.3,71.2,78.5,73.1,69.0,97,81,56,30.10,29.96,7,0,7,0.00
2013-6-26,96.0,77.4,69.4,79.0,71.7,67.9,98,84,54,30.00,29.87,18,0,18,0.01
2013-6-27,92.0,78.7,70.3,79.1,74.1,69.2,99,87,64,29.91,29.69,8,0,8,0.21
2013-6-28,96.0,78.9,69.5,79.3,73.3,68.6,100,86,51,29.73,29.56,10,0,10,5.36
2013-6-29,89.6,76.9,69.5,76.5,71.9,69.5,100,86,61,29.68,29.59,4,0,5,0.01
2013-6-30,86.2,75.3,66.6,77.1,71.8,65.9,99,89,71,29.82,29.66,4,0,4,0.28
2013-7-1,82.6,73.3,66.4,75.1,70.5,65.8,100,92,76,29.95,29.80,4,0,4,0.07
2013-7-2,80.7,72.9,70.7,75.4,71.5,70.0,99,95,81,30.12,29.94,7,0,7,0.16
2013-7-3,80.0,74.5,71.7,76.3,73.3,71.4,100,96,86,30.19,30.09,5,0,5,0.05
2013-7-4,88.3,76.9,72.6,77.5,73.9,72.2,100,91,63,30.21,30.11,7,0,7,0.49
2013-7-5,89.5,77.2,72.3,78.4,74.0,72.0,100,91,67,30.22,30.15,3,0,6,0.09
2013-7-6,85.6,75.7,70.6,77.4,73.0,70.3,100,92,73,30.21,30.08,7,0,7,0.17
2013-7-7,85.2,76.2,72.0,79.4,74.3,71.7,100,94,79,30.16,30.03,7,0,7,0.12
2013-7-8,86.5,77.2,71.6,78.4,74.0,71.5,100,91,68,30.16,30.07,6,0,6,0.16
2013-7-9,91.0,79.5,71.8,79.1,74.9,71.5,100,87,64,30.13,30.01,5,0,5,0.01
2013-7-10,88.5,77.0,70.1,77.8,73.4,69.5,100,89,68,30.08,29.91,8,0,8,0.00
2013-7-11,78.4,73.9,68.8,76.5,72.9,68.2,99,97,93,29.94,29.84,3,0,3,0.51
2013-7-12,81.5,73.6,69.0,74.3,70.9,67.9,100,92,74,29.99,29.85,4,0,4,0.00
2013-7-13,79.6,72.5,68.0,74.8,70.5,66.9,100,93,83,30.09,29.98,6,0,6,0.16
2013-7-14,87.2,76.4,71.4,77.0,73.2,70.4,100,91,67,30.25,30.07,5,0,5,0.32
2013-7-15,90.8,78.6,68.9,76.9,72.7,68.6,100,84,60,30.30,30.21,1,0,3,0.01
2013-7-16,96.4,81.9,69.2,78.9,73.5,68.6,100,78,47,30.28,30.17,5,0,5,0.00
2013-7-17,96.2,78.3,71.7,81.4,74.1,69.3,99,88,60,30.20,30.09,8,0,8,0.33
2013-7-18,94.8,80.2,70.0,81.5,75.5,69.8,100,87,62,30.14,30.02,6,0,6,0.00
2013-7-19,94.8,81.8,73.5,80.3,76.0,72.9,100,84,60,30.08,29.95,6,0,6,0.00
2013-7-20,89.3,78.2,72.9,79.8,74.7,71.6,97,89,71,30.00,29.88,6,0,6,0.04
2013-7-21,92.5,76.3,71.2,79.9,73.3,70.6,100,91,64,29.98,29.87,11,0,11,0.75
2013-7-22,86.5,76.5,70.0,77.9,73.5,70.0,100,91,72,29.96,29.81,7,0,7,0.01
2013-7-23,91.8,80.1,71.2,76.7,73.1,70.4,99,81,56,29.83,29.72,11,0,11,0.01
2013-7-24,93.8,79.8,69.8,79.1,73.4,69.0,100,83,55,29.84,29.70,5,0,5,1.21
2013-7-25,86.6,74.7,67.0,74.3,70.2,66.7,100,87,65,30.00,29.78,4,0,4,0.01
2013-7-26,87.2,75.7,67.0,74.8,70.1,66.3,99,84,63,30.09,29.98,0,0,0,0.00
2013-7-27,77.3,71.8,67.8,73.9,70.4,66.9,99,95,84,30.01,29.90,9,0,9,0.75
2013-7-28,89.8,76.4,68.7,76.9,71.8,67.2,100,87,62,29.98,29.89,7,0,7,0.11
2013-7-29,89.1,75.6,65.8,73.9,69.3,65.5,99,83,57,30.13,29.97,2,0,2,0.01
2013-7-30,89.2,75.7,64.7,72.4,68.2,63.3,96,79,55,30.20,30.10,0,0,0,0.00
2013-7-31,81.8,73.9,70.4,74.8,71.3,69.5,100,92,78,30.13,29.96,5,0,5,0.35
2013-8-1,89.4,77.0,69.2,78.8,73.1,69.2,100,89,67,29.96,29.84,4,0,4,0.02
2013-8-2,89.6,78.4,68.8,76.1,72.0,68.4,99,83,59,30.00,29.89,1,0,1,0.00
2013-8-3,93.5,80.9,72.1,78.9,74.0,71.0,100,82,57,29.99,29.89,6,0,6,0.00
2013-8-4,89.4,77.9,68.8,73.6,70.1,67.3,98,79,52,30.00,29.89,7,0,7,0.00
2013-8-5,86.1,75.4,66.9,72.5,68.2,63.6,93,79,60,30.05,29.94,5,0,5,0.00
2013-8-6,75.3,71.4,67.2,71.7,69.1,66.0,100,93,78,30.04,29.95,7,0,7,0.41
2013-8-7,87.8,76.1,70.1,74.7,71.3,68.8,99,86,62,30.07,29.98,4,0,4,0.03
2013-8-8,86.3,77.5,71.9,79.9,73.9,69.8,99,89,72,30.04,29.96,6,0,6,0.08
2013-8-9,94.7,80.5,72.7,81.7,75.5,71.3,99,86,62,30.04,29.96,4,0,9,0.03
2013-8-10,92.0,78.2,72.5,83.2,74.7,71.0,100,90,67,30.08,29.99,7,0,19,0.02
2013-8-11,94.0,80.3,70.3,78.6,74.1,69.7,99,83,56,30.09,29.99,2,0,6,0.00
2013-8-12,76.8,73.9,72.3,73.4,72.4,71.7,99,95,89,30.03,30.00,1,0,1,0.00
2013-8-13,92.0,77.5,70.6,78.1,72.6,69.9,99,86,61,29.93,29.77,6,0,8,0.01
2013-8-14,79.5,72.5,64.8,71.9,65.6,60.6,96,80,59,30.06,29.83,7,0,7,0.00
2013-8-15,75.6,67.3,59.8,62.2,60.3,58.7,97,79,58,30.14,30.05,1,0,9,0.00
2013-8-16,71.3,64.3,59.0,64.0,60.1,56.7,94,87,70,30.16,30.07,2,0,2,0.00
2013-8-17,65.5,62.8,60.3,65.1,62.1,59.5,99,97,94,30.18,30.12,5,0,5,0.68
2013-8-18,81.8,71.4,64.1,73.5,68.8,63.8,100,92,74,30.22,30.11,4,0,4,0.09
2013-8-19,77.3,71.0,67.4,72.9,69.8,67.1,100,96,84,30.16,30.07,0,0,0,0.37
2013-8-20,81.6,72.9,64.6,74.2,69.7,64.3,100,90,75,30.17,30.09,0,0,0,0.01
2013-8-21,83.3,75.0,71.7,76.8,72.0,70.2,95,91,79,30.20,30.09,5,0,5,0.00
2013-8-22,94.5,50.4,0.0,76.3,42.4,0.0,88,36,53,30.12,29.96,0,0,7,0.00
2013-8-23,93.5,84.6,75.3,75.9,74.1,69.6,89,72,54,30.03,29.92,1,0,12,0.03
2013-8-24,82.7,79.1,72.5,72.8,65.4,61.9,89,64,52,30.26,30.04,6,0,6,0.00
2013-8-25,81.6,78.4,71.6,67.4,64.1,56.2,83,62,56,30.36,30.25,2,0,2,0.00
2013-8-26,84.9,68.8,0.0,68.1,56.6,0.0,79,55,53,30.29,30.08,5,0,5,0.00
2013-8-27,92.2,47.0,0.0,75.7,39.5,-6.6,71,34,55,30.11,29.94,6,0,6,0.00
2013-8-28,93.3,88.2,82.6,77.3,75.0,70.1,77,65,56,29.97,29.86,6,0,6,0.00
2013-8-29,94.2,89.5,85.5,78.2,76.1,74.3,70,65,57,29.95,29.84,8,0,8,0.00
2013-8-30,91.3,86.9,75.9,76.6,73.2,68.1,84,64,52,30.01,29.89,4,0,4,0.00
2013-8-31,92.9,86.9,82.0,78.6,73.9,70.1,80,65,60,29.93,29.82,8,0,8,0.00
2013-9-1,93.8,89.5,76.9,79.5,77.0,66.1,89,67,59,29.87,29.74,9,0,9,0.00
2013-9-2,92.0,87.1,73.8,78.0,76.1,59.3,100,71,61,29.86,29.76,0,0,0,0.00
2013-9-3,93.2,80.1,72.4,77.7,72.6,66.8,100,80,52,29.93,29.76,8,0,8,0.00
2013-9-4,91.3,75.5,63.6,71.6,66.4,61.2,93,75,51,30.07,29.93,7,0,7,0.00
2013-9-5,92.0,74.8,64.2,72.4,66.4,62.7,99,78,40,30.10,30.02,0,0,0,0.00
2013-9-6,86.1,73.2,63.5,68.1,63.9,60.3,92,74,52,30.17,30.05,3,0,3,0.00
2013-9-7,87.8,72.2,59.9,70.7,65.0,58.3,97,80,55,30.12,29.96,5,0,5,0.00
2013-9-8,89.3,76.2,64.2,71.8,68.0,63.1,100,78,52,29.97,29.90,5,0,5,0.00
2013-9-9,90.2,76.5,65.7,72.7,68.8,64.8,100,79,52,30.11,29.97,0,0,0,0.00
2013-9-10,94.7,77.5,65.9,75.4,70.3,65.2,100,81,50,30.21,30.10,6,0,6,0.00
2013-9-11,94.3,78.7,66.5,74.6,69.4,65.3,98,76,48,30.19,30.04,8,0,8,0.00
2013-9-12,95.3,79.1,70.2,75.5,70.0,65.1,89,75,50,30.05,29.81,8,0,8,0.00
2013-9-13,88.7,75.9,66.7,69.7,63.9,54.1,92,69,44,29.89,29.75,11,0,11,0.00
2013-9-14,79.7,66.2,55.8,62.2,55.8,50.1,90,70,53,30.10,29.89,7,0,7,0.00
2013-9-15,83.5,66.7,54.1,68.7,61.3,52.7,97,84,59,30.21,30.09,1,0,1,0.00
2013-9-16,89.6,74.8,64.2,71.3,65.9,63.0,99,77,48,30.14,30.02,4,0,4,0.00
2013-9-17,74.6,67.0,61.8,63.6,58.6,56.3,87,75,57,30.28,30.14,4,0,5,0.00
2013-9-18,78.3,65.6,56.8,60.7,56.3,52.3,89,73,52,30.30,30.15,5,0,6,0.00
2013-9-19,81.5,67.2,58.4,66.4,60.9,56.2,95,81,59,30.18,30.07,4,0,4,0.00
2013-9-20,69.2,63.9,61.5,65.6,62.3,60.3,98,95,88,30.07,30.03,2,0,2,0.00
2013-9-21,74.4,70.3,63.5,71.2,68.5,62.7,99,94,86,29.91,29.68,7,0,7,1.60
2013-9-22,80.3,67.0,57.3,62.7,59.5,55.7,99,79,49,29.90,29.68,7,0,7,0.09
2013-9-23,78.8,64.6,55.4,61.7,57.1,52.8,94,78,53,30.05,29.89,4,0,4,0.00
2013-9-24,79.2,66.0,57.2,64.6,59.8,56.0,97,82,57,30.07,29.92,0,0,0,0.00
2013-9-25,70.8,63.4,59.0,65.0,60.7,57.0,99,91,71,29.93,29.85,1,0,1,0.13
2013-9-26,77.0,64.9,57.5,62.3,58.4,52.9,99,81,55,30.02,29.87,5,0,5,0.01
2013-9-27,77.1,63.3,53.5,61.2,55.9,51.9,97,79,54,30.18,30.02,5,0,5,0.00
2013-9-28,72.0,60.5,52.4,58.2,54.3,51.1,98,82,59,30.25,30.16,2,0,5,0.00
2013-9-29,73.4,62.0,53.2,61.0,56.1,51.0,95,82,61,30.18,30.02,6,0,6,0.00
2013-9-30,80.0,63.2,51.3,61.6,56.0,50.4,99,80,49,30.10,29.99,0,0,0,0.01
2013-10-1,85.0,68.4,54.3,65.5,61.0,53.0,99,79,50,30.12,30.02,0,0,0,0.00
2013-10-2,86.5,69.4,56.6,67.1,61.8,55.3,99,79,50,30.14,30.04,0,0,0,0.00
2013-10-3,88.3,71.1,60.4,68.6,63.1,59.3,99,79,48,30.12,30.04,0,0,0,0.00
2013-10-4,89.6,72.2,60.0,70.1,64.5,58.6,99,79,49,30.13,30.04,0,0,0,0.00
2013-10-5,89.8,72.9,60.9,72.6,66.1,60.0,100,82,52,30.11,30.00,0,0,0,0.00
2013-10-6,85.7,72.5,62.8,70.1,65.9,61.3,98,81,56,30.03,29.86,0,0,0,0.00
2013-10-7,78.6,70.7,62.6,72.6,67.4,54.4,100,90,74,29.98,29.78,7,0,7,0.58
2013-10-8,68.9,61.0,56.6,54.4,51.0,46.9,80,70,56,30.20,29.98,10,0,10,0.00
2013-10-9,72.6,59.9,50.1,55.9,50.3,45.9,87,72,54,30.22,30.11,9,0,9,0.00
2013-10-10,72.1,62.4,52.3,63.2,56.1,48.2,88,80,72,30.11,29.95,6,0,6,0.00
2013-10-11,78.7,69.3,60.1,64.6,60.8,56.6,89,75,55,29.98,29.89,8,0,8,0.00
2013-10-12,74.1,66.9,58.7,64.8,62.1,57.5,98,85,71,30.07,29.94,4,0,4,0.00
2013-10-13,69.5,64.8,61.7,64.7,62.4,60.8,97,92,83,30.20,30.07,6,0,6,0.04
2013-10-14,69.5,63.3,59.4,64.2,60.5,57.9,99,91,80,30.23,30.14,6,0,6,0.07
2013-10-15,76.7,64.2,57.0,59.3,56.8,54.1,94,79,51,30.19,30.03,4,0,4,0.00
2013-10-16,74.5,62.9,52.4,63.6,58.2,51.0,98,86,67,30.07,29.94,4,0,4,0.00
2013-10-17,71.2,64.6,60.1,65.4,62.5,59.2,98,93,78,29.97,29.83,6,0,6,0.08
2013-10-18,71.6,62.1,54.0,64.8,56.6,51.0,97,83,59,30.03,29.87,6,0,6,0.00
2013-10-19,63.0,58.4,53.8,61.2,56.8,52.4,99,94,85,29.95,29.83,5,0,5,0.01
2013-10-20,68.8,53.9,43.4,54.0,46.1,41.9,99,77,44,30.10,29.91,6,0,6,0.01
2013-10-21,71.3,53.8,40.4,55.7,47.9,39.1,100,82,56,30.16,29.99,5,0,5,0.00
2013-10-22,69.9,60.2,53.7,59.1,55.5,51.6,95,85,61,30.01,29.78,7,0,7,0.00
2013-10-23,66.8,56.2,45.5,57.3,45.6,32.8,98,71,40,30.03,29.71,19,1,19,0.01
2013-10-24,61.2,46.8,33.4,44.0,37.2,31.1,95,71,47,30.18,30.02,9,0,9,0.00
2013-10-25,54.6,44.9,34.8,41.3,34.2,28.9,86,67,45,30.40,30.18,11,0,11,0.00
2013-10-26,60.2,42.9,27.8,38.8,32.9,25.5,96,70,43,30.39,30.09,9,0,9,0.00
2013-10-27,71.2,54.0,39.2,52.1,44.4,36.3,96,72,48,30.14,30.05,7,0,7,0.00
2013-10-28,68.5,55.6,45.8,56.9,50.8,44.1,97,85,64,30.26,30.10,1,0,1,0.00
2013-10-29,75.0,58.9,49.6,58.9,53.3,48.2,100,83,55,30.33,30.23,1,0,1,0.00
2013-10-30,80.0,62.9,50.9,62.5,56.2,49.8,98,81,53,30.28,30.14,9,0,9,0.00
2013-10-31,70.8,63.6,55.1,64.8,58.3,53.1,96,83,70,30.16,29.88,8,0,8,0.00
2013-11-1,68.6,64.3,58.6,65.9,61.9,57.3,98,92,80,29.88,29.65,10,0,10,0.57
2013-11-2,70.0,57.7,49.9,59.4,50.2,40.6,99,79,43,29.97,29.70,13,0,13,0.13
2013-11-3,62.9,50.9,42.0,42.2,38.9,35.5,85,65,42,30.35,29.97,9,0,9,0.00
2013-11-4,59.2,45.1,36.2,37.3,34.7,32.8,89,69,43,30.54,30.35,4,0,4,0.00
2013-11-5,55.7,50.0,34.9,48.4,42.6,30.9,91,76,66,30.58,30.44,5,0,5,0.00
2013-11-6,72.0,57.4,48.8,57.6,51.1,46.0,94,81,59,30.44,30.11,4,0,4,0.00
2013-11-7,70.1,55.1,46.1,61.4,48.2,34.6,100,80,47,30.15,29.94,12,0,12,0.03
2013-11-8,60.8,47.0,37.5,39.5,33.3,28.6,74,60,38,30.33,30.14,0,0,0,0.00
2013-11-9,61.5,44.4,32.3,45.7,32.5,25.4,79,64,38,30.40,30.21,11,0,11,0.00
2013-11-10,72.4,55.2,39.0,43.7,38.0,31.1,89,55,31,30.24,30.10,17,0,17,0.00
2013-11-11,59.4,47.2,34.2,35.6,30.8,26.1,80,54,34,30.35,30.15,5,0,6,0.00
2013-11-12,63.6,44.0,30.4,43.1,33.5,18.4,92,68,40,30.47,30.06,13,0,13,0.06
2013-11-13,47.4,33.6,24.5,23.7,20.4,17.5,82,60,35,30.58,30.47,10,0,10,0.00
2013-11-14,57.8,38.9,25.4,28.1,24.5,21.3,88,60,30,30.51,30.35,10,0,10,0.00
2013-11-15,59.0,46.2,31.5,47.6,36.9,23.9,93,71,49,30.37,30.21,4,0,4,0.07
2013-11-16,64.8,54.2,48.3,58.0,51.7,46.7,98,92,78,30.27,30.19,2,0,2,0.00
2013-11-17,68.8,58.8,51.4,64.8,57.5,50.6,100,96,77,30.21,29.87,10,0,10,0.11
2013-11-18,74.5,64.5,50.6,66.5,52.0,33.9,100,68,37,29.99,29.81,14,1,14,0.02
2013-11-19,54.8,46.8,39.9,34.0,29.3,27.4,66,51,38,30.29,29.97,8,0,8,0.00
2013-11-20,51.7,43.0,34.4,35.7,31.5,27.5,76,64,53,30.47,30.27,4,0,7,0.00
2013-11-21,57.1,48.6,42.0,45.1,39.7,32.3,78,71,63,30.51,30.39,5,0,5,0.00
2013-11-22,65.5,57.0,49.9,58.7,51.5,43.5,93,82,76,30.41,30.10,10,0,10,0.00
2013-11-23,60.3,54.8,41.0,57.8,44.9,21.7,100,72,40,30.21,30.04,8,0,8,0.00
2013-11-24,41.2,33.4,25.2,23.9,12.6,6.1,54,43,27,30.56,30.21,15,0,15,0.00
2013-11-25,41.1,31.9,20.1,18.0,12.3,7.4,71,45,30,30.60,30.38,5,0,5,0.00
2013-11-26,43.6,36.9,31.3,43.3,32.3,15.6,99,86,40,30.39,29.62,9,0,9,2.68
2013-11-27,45.2,38.8,28.8,44.9,33.0,18.2,99,81,58,30.22,29.55,10,1,17,0.28
2013-11-28,46.1,31.7,20.3,24.9,20.3,16.4,89,64,40,30.51,30.22,5,0,5,0.00
2013-11-29,52.1,37.3,24.4,29.2,25.5,21.9,92,65,38,30.63,30.50,3,0,3,0.00
2013-11-30,46.2,35.3,27.5,27.5,24.6,22.0,80,66,46,30.67,30.40,6,0,6,0.00
2013-12-1,58.3,40.3,26.9,41.7,31.7,22.7,89,73,49,30.40,30.04,3,0,6,0.00
2013-12-2,59.0,44.2,30.2,42.9,36.7,28.9,97,77,50,30.04,29.83,5,0,5,0.00
2013-12-3,60.6,51.4,42.9,53.1,47.2,38.3,97,86,73,29.97,29.87,12,0,12,0.06
2013-12-4,60.3,55.3,51.0,59.4,54.5,49.8,100,97,92,30.07,29.95,5,0,5,0.17
2013-12-5,65.0,62.2,59.0,65.0,62.0,58.7,100,99,97,30.10,30.00,14,1,14,0.16
2013-12-6,75.6,69.3,64.7,65.9,64.8,63.1,100,86,70,30.04,29.93,20,4,20,0.01
2013-12-7,69.9,54.3,45.1,65.3,50.1,39.1,98,86,74,30.41,29.96,13,1,13,0.09
2013-12-8,45.0,36.7,33.2,39.5,33.8,31.9,97,89,74,30.43,30.30,4,1,6,0.06
2013-12-9,44.3,39.0,33.2,44.0,38.5,32.4,99,98,97,30.30,30.06,4,0,4,0.55
2013-12-10,52.5,44.2,32.2,48.6,39.2,23.1,99,84,55,30.33,29.92,7,0,13,0.16
2013-12-11,50.0,35.5,24.2,29.9,26.1,22.2,95,71,41,30.48,30.32,8,0,9,0.00
2013-12-12,47.5,36.5,28.2,28.6,22.2,17.2,85,58,32,30.44,30.31,8,0,8,0.00
2013-12-13,50.9,36.0,22.7,32.0,25.1,17.0,90,66,41,30.40,30.28,11,0,11,0.00
2013-12-14,45.7,39.1,37.1,41.6,35.4,30.4,97,87,73,30.29,29.81,9,0,9,0.49
2013-12-15,51.7,42.3,35.3,42.9,36.2,28.1,99,80,57,30.12,29.76,7,1,13,0.01
2013-12-16,57.7,42.1,28.9,37.2,32.0,26.1,91,69,44,30.19,30.10,10,1,10,0.00
2013-12-17,61.2,48.3,35.9,41.5,34.8,28.8,81,61,44,30.14,29.91,15,2,15,0.00
2013-12-18,52.4,42.5,32.8,29.3,23.2,18.6,73,48,27,30.30,30.05,8,0,11,0.00
2013-12-19,63.0,45.2,27.9,30.7,26.8,22.2,84,52,24,30.34,30.23,15,1,15,0.00
2013-12-20,62.2,51.4,40.2,51.9,42.9,29.8,89,73,52,30.25,30.14,15,1,15,0.00
2013-12-21,70.7,60.6,51.9,63.9,56.6,49.1,94,87,75,30.14,29.99,9,1,9,0.00
2013-12-22,71.4,66.3,62.4,68.6,65.0,62.0,100,95,88,30.05,29.96,12,2,13,1.17
2013-12-23,62.7,57.6,43.2,62.6,56.6,36.3,100,97,76,30.17,29.96,13,1,13,1.40
2013-12-24,46.7,38.4,28.3,36.5,27.6,16.6,83,66,44,30.48,30.15,14,1,14,0.00
2013-12-25,38.9,29.0,21.0,22.6,15.7,13.0,76,58,38,30.58,30.42,6,0,6,0.00
2013-12-26,52.6,37.9,28.0,31.0,25.3,19.6,84,62,40,30.42,30.28,7,0,7,0.00
2013-12-27,52.3,38.1,27.5,28.9,23.4,19.6,73,57,34,30.50,30.38,5,0,5,0.00
2013-12-28,55.4,40.1,25.9,38.9,30.3,21.6,94,70,43,30.43,30.14,2,0,5,0.01
2013-12-29,57.1,44.6,40.2,51.0,42.3,38.2,98,92,79,30.14,29.78,14,1,14,1.47
2013-12-30,53.1,43.7,35.0,43.5,39.8,33.9,98,87,67,30.13,29.94,5,0,5,0.01
2013-12-31,50.5,41.7,33.7,39.3,31.7,24.0,95,70,42,30.38,30.10,5,0,11,0.00
2014-1-1,48.9,37.5,29.0,33.2,28.8,24.8,92,73,48,30.42,30.16,6,0,6,0.00
2014-1-2,46.5,41.7,35.4,44.6,38.5,24.6,97,89,66,30.16,29.65,16,0,16,0.29